Time;durP1;ratioP1;P1;durP2;ratioP2;P2;SDS_P1;SDS_P2;PMS_P1;PMS_P2;Temp;Humidity;BMP_temperature;BMP_pressure;BME280_temperature;BME280_humidity;BME280_pressure;Samples;Min_cycle;Max_cycle;Signal;HPM_P1;HPM_P2
2022/12/02 00:00:49;;;;;;;49.65;22.23;;;4.60;99.90;;;;;;5002623;28;20026;-55
2022/12/02 00:03:19;;;;;;;46.28;21.88;;;4.60;99.90;;;;;;4988800;28;20026;-58
2022/12/02 00:05:48;;;;;;;45.33;22.45;;;4.60;99.90;;;;;;4986688;28;20034;-60
2022/12/02 00:08:28;;;;;;;47.35;20.85;;;4.60;99.90;;;;;;4987404;28;20054;-58
2022/12/02 00:10:56;;;;;;;46.78;22.17;;;4.50;99.90;;;;;;4990658;28;20038;-53
2022/12/02 00:13:26;;;;;;;46.22;24.35;;;4.60;99.90;;;;;;4988452;28;20528;-53
2022/12/02 00:16:00;;;;;;;51.30;23.30;;;4.50;99.90;;;;;;4988054;28;20375;-55
2022/12/02 00:18:26;;;;;;;55.40;22.30;;;4.60;99.90;;;;;;4999754;28;20077;-59
2022/12/02 00:20:53;;;;;;;49.88;23.02;;;4.50;99.90;;;;;;5004553;28;20038;-58
2022/12/02 00:23:18;;;;;;;49.20;23.58;;;4.50;99.90;;;;;;5004558;28;20053;-55
2022/12/02 00:25:52;;;;;;;45.95;22.10;;;4.60;99.90;;;;;;4992442;28;20499;-59
2022/12/02 00:28:18;;;;;;;48.40;24.20;;;4.60;99.90;;;;;;4986644;28;20022;-51
2022/12/02 00:30:44;;;;;;;49.55;23.08;;;4.50;99.90;;;;;;4990074;28;20391;-55
2022/12/02 00:33:10;;;;;;;45.50;22.30;;;4.50;99.90;;;;;;4987817;28;20038;-61
2022/12/02 00:35:36;;;;;;;42.10;21.55;;;4.50;99.90;;;;;;4989587;28;20034;-56
2022/12/02 00:38:02;;;;;;;49.83;23.60;;;4.40;99.90;;;;;;4989277;28;20018;-58
2022/12/02 00:40:27;;;;;;;51.42;23.92;;;4.40;99.90;;;;;;4987592;28;20096;-51
2022/12/02 00:42:53;;;;;;;53.90;23.38;;;4.50;99.90;;;;;;4987692;28;20458;-53
2022/12/02 00:48:03;;;;;;;46.88;22.88;;;4.40;99.90;;;;;;4988319;28;20037;-55
2022/12/02 00:50:28;;;;;;;49.58;22.02;;;4.40;99.90;;;;;;4991180;28;20034;-59
2022/12/02 00:52:54;;;;;;;45.50;22.50;;;4.50;99.90;;;;;;5007882;28;20027;-57
2022/12/02 00:55:20;;;;;;;51.28;23.63;;;4.40;99.90;;;;;;4994287;28;20402;-58
2022/12/02 00:57:45;;;;;;;49.38;22.58;;;4.40;99.90;;;;;;4997910;23;20126;-56
2022/12/02 01:00:11;;;;;;;48.10;21.38;;;4.40;99.90;;;;;;4968691;28;20053;-58
2022/12/02 01:02:37;;;;;;;47.58;21.40;;;4.30;99.90;;;;;;4959730;28;20032;-56
2022/12/02 01:05:03;;;;;;;48.97;22.52;;;4.30;99.90;;;;;;4959744;28;20107;-49
2022/12/02 01:07:29;;;;;;;48.58;22.58;;;4.30;99.90;;;;;;4959578;28;20023;-58
2022/12/02 01:09:54;;;;;;;46.17;20.92;;;4.30;99.90;;;;;;4960019;28;20023;-55
2022/12/02 01:12:20;;;;;;;44.45;20.77;;;4.30;99.90;;;;;;4961852;28;20328;-55
2022/12/02 01:14:46;;;;;;;46.25;21.83;;;4.20;99.90;;;;;;4955463;28;20534;-54
2022/12/02 01:17:11;;;;;;;41.08;21.25;;;4.10;99.90;;;;;;4953341;28;20039;-60
2022/12/02 01:19:37;;;;;;;43.85;21.55;;;4.10;99.90;;;;;;4956062;28;20024;-45
2022/12/02 01:22:02;;;;;;;46.58;21.88;;;4.00;99.90;;;;;;4955933;28;20407;-46
2022/12/02 01:24:28;;;;;;;44.72;21.13;;;4.00;99.90;;;;;;4956400;28;20059;-50
2022/12/02 01:26:53;;;;;;;44.92;22.85;;;4.00;99.90;;;;;;4956513;28;20038;-46
2022/12/02 01:29:19;;;;;;;51.47;21.85;;;4.00;99.90;;;;;;4956587;28;20302;-46
2022/12/02 01:31:44;;;;;;;45.88;19.45;;;4.00;99.90;;;;;;4956282;28;20031;-44
2022/12/02 01:34:10;;;;;;;42.80;19.55;;;4.00;99.90;;;;;;4954091;28;20578;-48
2022/12/02 01:36:35;;;;;;;41.92;20.92;;;4.10;99.90;;;;;;4956177;28;20036;-45
2022/12/02 01:39:01;;;;;;;51.60;21.08;;;4.00;99.90;;;;;;4956435;28;20035;-50
2022/12/02 01:41:26;;;;;;;41.33;20.23;;;4.00;99.90;;;;;;4956270;28;20428;-46
2022/12/02 01:43:52;;;;;;;46.60;20.45;;;4.10;99.90;;;;;;4955567;28;20042;-45
2022/12/02 01:46:18;;;;;;;45.30;21.48;;;4.10;99.90;;;;;;4956009;28;20558;-48
2022/12/02 01:48:44;;;;;;;47.30;20.50;;;4.10;99.90;;;;;;4956207;28;20035;-53
2022/12/02 01:51:09;;;;;;;49.25;22.67;;;4.20;99.90;;;;;;4956051;28;20028;-43
2022/12/02 01:53:35;;;;;;;46.35;21.15;;;4.20;99.90;;;;;;4955368;28;20102;-48
2022/12/02 01:56:01;;;;;;;46.20;22.13;;;4.20;99.90;;;;;;4955879;28;20035;-47
2022/12/02 01:58:29;;;;;;;54.50;24.50;;;4.10;99.90;;;;;;4955868;28;20035;-47
2022/12/02 02:00:56;;;;;;;57.47;27.50;;;4.10;99.90;;;;;;4955489;28;20036;-45
2022/12/02 02:03:22;;;;;;;51.85;22.48;;;4.10;99.90;;;;;;4955063;29;20020;-49
2022/12/02 02:05:48;;;;;;;43.15;21.20;;;4.10;99.90;;;;;;4955564;28;20443;-48
2022/12/02 02:08:14;;;;;;;44.95;21.25;;;4.10;99.90;;;;;;4955656;28;20059;-45
2022/12/02 02:10:42;;;;;;;46.30;21.38;;;4.10;99.90;;;;;;4955716;28;20403;-46
2022/12/02 02:13:08;;;;;;;45.95;21.42;;;4.10;99.90;;;;;;4955169;28;20034;-45
2022/12/02 02:15:37;;;;;;;45.22;21.17;;;4.10;99.90;;;;;;4955577;28;20038;-45
2022/12/02 02:18:02;;;;;;;42.45;20.23;;;4.10;99.90;;;;;;4955658;28;20110;-46
2022/12/02 02:20:28;;;;;;;46.33;21.55;;;4.10;99.90;;;;;;4955572;28;20467;-47
2022/12/02 02:23:10;;;;;;;44.45;20.15;;;4.10;99.90;;;;;;4954850;28;20023;-50
2022/12/02 02:25:43;;;;;;;45.47;19.80;;;4.20;99.90;;;;;;4955590;28;20543;-51
2022/12/02 02:28:09;;;;;;;46.97;21.08;;;4.20;99.90;;;;;;4955234;28;20028;-47
2022/12/02 02:30:35;;;;;;;41.17;19.67;;;4.20;99.90;;;;;;4955288;28;20396;-49
2022/12/02 02:33:03;;;;;;;50.35;20.33;;;4.30;99.90;;;;;;4954634;28;20055;-46
2022/12/02 02:35:30;;;;;;;52.00;21.05;;;4.30;99.90;;;;;;4953476;28;20031;-45
2022/12/02 02:37:56;;;;;;;44.75;22.02;;;4.20;99.90;;;;;;4954972;28;20019;-48
2022/12/02 02:40:24;;;;;;;43.05;19.38;;;4.20;99.90;;;;;;4955295;28;20019;-47
2022/12/02 02:42:52;;;;;;;41.95;20.60;;;4.20;99.90;;;;;;4954526;28;20015;-45
2022/12/02 02:45:24;;;;;;;54.10;21.83;;;4.20;99.90;;;;;;4955296;28;20531;-46
2022/12/02 02:47:51;;;;;;;45.67;21.83;;;4.20;99.90;;;;;;4954935;28;20042;-45
2022/12/02 02:50:18;;;;;;;45.30;21.48;;;4.20;99.90;;;;;;4954931;28;20067;-43
2022/12/02 02:52:44;;;;;;;43.78;20.17;;;4.30;99.90;;;;;;4954268;28;20492;-48
2022/12/02 02:55:17;;;;;;;44.60;19.40;;;4.30;99.90;;;;;;4955163;28;20041;-45
2022/12/02 02:57:42;;;;;;;46.95;20.83;;;4.30;99.90;;;;;;4954663;28;20039;-46
2022/12/02 03:00:08;;;;;;;53.42;22.48;;;4.20;99.90;;;;;;4954960;28;20102;-47
2022/12/02 03:02:34;;;;;;;47.20;20.77;;;4.30;99.90;;;;;;4953995;28;20016;-40
2022/12/02 03:05:00;;;;;;;45.80;21.33;;;4.20;99.90;;;;;;4954669;28;20037;-45
2022/12/02 03:07:25;;;;;;;47.17;21.35;;;4.30;99.90;;;;;;4957033;28;20051;-46
2022/12/02 03:09:51;;;;;;;49.72;21.90;;;4.30;99.90;;;;;;4955811;28;20035;-45
2022/12/02 03:12:17;;;;;;;49.88;21.40;;;4.30;99.90;;;;;;4954188;28;20019;-42
2022/12/02 03:14:44;;;;;;;48.35;22.25;;;4.30;99.90;;;;;;4953900;28;20102;-45
2022/12/02 03:17:09;;;;;;;49.03;21.52;;;4.30;99.90;;;;;;4954768;28;20042;-49
2022/12/02 03:19:36;;;;;;;44.85;20.50;;;4.30;99.90;;;;;;4954338;28;20028;-48
2022/12/02 03:22:02;;;;;;;47.00;22.05;;;4.30;99.90;;;;;;4953572;28;20019;-46
2022/12/02 03:24:30;;;;;;;47.92;21.73;;;4.30;99.90;;;;;;4954368;28;20368;-43
2022/12/02 03:26:56;;;;;;;41.08;20.90;;;4.30;99.90;;;;;;4954256;28;20031;-46
2022/12/02 03:29:21;;;;;;;49.90;21.60;;;4.30;99.90;;;;;;4954520;28;20031;-49
2022/12/02 03:31:47;;;;;;;41.75;20.13;;;4.30;99.90;;;;;;4953884;28;20031;-45
2022/12/02 03:34:13;;;;;;;46.05;20.77;;;4.30;99.90;;;;;;4966865;28;20126;-46
2022/12/02 03:36:39;;;;;;;51.88;22.52;;;4.30;99.90;;;;;;4953907;29;20032;-49
2022/12/02 03:39:05;;;;;;;44.50;20.20;;;4.30;99.90;;;;;;4954029;28;20035;-48
2022/12/02 03:41:31;;;;;;;44.42;21.00;;;4.30;99.90;;;;;;4968850;28;20034;-49
2022/12/02 03:43:58;;;;;;;50.13;23.23;;;4.30;99.90;;;;;;4953450;28;20032;-49
2022/12/02 03:46:25;;;;;;;49.90;23.00;;;4.30;99.90;;;;;;4953782;28;20082;-49
2022/12/02 03:48:51;;;;;;;42.38;20.85;;;4.30;99.90;;;;;;4953945;28;20054;-45
2022/12/02 03:51:17;;;;;;;44.60;21.52;;;4.30;99.90;;;;;;4953966;28;20118;-47
2022/12/02 03:53:43;;;;;;;49.25;23.02;;;4.30;99.90;;;;;;4953375;28;20066;-48
2022/12/02 03:56:09;;;;;;;51.17;24.52;;;4.30;99.90;;;;;;4954151;28;20050;-46
2022/12/02 03:58:47;;;;;;;48.47;23.40;;;4.20;99.90;;;;;;4953710;28;20038;-49
2022/12/02 04:01:13;;;;;;;47.92;22.00;;;4.30;99.90;;;;;;4954076;28;20030;-48
2022/12/02 04:03:39;;;;;;;50.30;22.13;;;4.30;99.90;;;;;;4953098;28;20027;-49
2022/12/02 04:06:05;;;;;;;51.20;21.83;;;4.40;99.90;;;;;;4953770;28;20365;-48
2022/12/02 04:08:30;;;;;;;48.72;20.98;;;4.40;99.90;;;;;;4953405;28;20121;-50
2022/12/02 04:10:56;;;;;;;50.42;21.30;;;4.40;99.90;;;;;;4953697;28;20394;-46
2022/12/02 04:13:21;;;;;;;55.80;25.65;;;4.30;99.90;;;;;;4952733;28;20043;-45
2022/12/02 04:15:47;;;;;;;52.58;23.90;;;4.30;99.90;;;;;;4953454;28;20090;-47
2022/12/02 04:18:13;;;;;;;51.17;23.92;;;4.30;99.90;;;;;;4953334;28;20435;-49
2022/12/02 04:20:38;;;;;;;44.80;20.58;;;4.30;99.90;;;;;;4953495;28;20053;-46
2022/12/02 04:23:04;;;;;;;52.67;23.83;;;4.30;99.90;;;;;;4953209;28;20479;-44
2022/12/02 04:25:29;;;;;;;44.67;21.65;;;4.30;99.90;;;;;;4953641;28;20031;-49
2022/12/02 04:27:55;;;;;;;49.60;23.35;;;4.40;99.90;;;;;;4953105;28;20027;-45
2022/12/02 04:30:20;;;;;;;51.13;23.33;;;4.30;99.90;;;;;;4953423;28;20479;-44
2022/12/02 04:32:46;;;;;;;47.28;21.70;;;4.40;99.90;;;;;;4952422;28;20031;-47
2022/12/02 04:35:11;;;;;;;47.33;23.25;;;4.30;99.90;;;;;;4952534;28;20024;-47
2022/12/02 04:37:37;;;;;;;51.58;22.63;;;4.30;99.90;;;;;;4953165;28;20420;-49
2022/12/02 04:40:03;;;;;;;46.28;21.95;;;4.30;99.90;;;;;;4953302;28;20035;-46
2022/12/02 04:42:29;;;;;;;51.35;23.52;;;4.30;99.90;;;;;;4952584;28;20044;-46
2022/12/02 04:44:54;;;;;;;40.15;20.52;;;4.30;99.90;;;;;;4953201;28;20116;-46
2022/12/02 04:47:20;;;;;;;50.45;22.55;;;4.40;99.90;;;;;;4953140;28;20415;-46
2022/12/02 04:49:45;;;;;;;55.53;23.05;;;4.40;99.90;;;;;;4953105;28;20046;-44
2022/12/02 04:52:11;;;;;;;51.60;21.90;;;4.30;99.90;;;;;;4952226;28;20035;-48
2022/12/02 04:54:36;;;;;;;47.60;22.13;;;4.30;99.90;;;;;;4953248;28;20038;-52
2022/12/02 04:57:02;;;;;;;46.42;21.88;;;4.30;99.90;;;;;;4952848;28;20042;-45
2022/12/02 04:59:27;;;;;;;45.63;21.17;;;4.30;99.90;;;;;;4952872;28;20035;-48
2022/12/02 05:01:53;;;;;;;42.55;21.35;;;4.30;99.90;;;;;;4952673;28;20032;-46
2022/12/02 05:04:18;;;;;;;42.30;20.10;;;4.30;99.90;;;;;;4952824;28;20037;-46
2022/12/02 05:06:44;;;;;;;45.95;21.20;;;4.30;99.90;;;;;;4953081;28;20554;-45
2022/12/02 05:09:09;;;;;;;44.25;20.50;;;4.30;99.90;;;;;;4952947;28;20029;-45
2022/12/02 05:11:35;;;;;;;50.58;21.92;;;4.40;99.90;;;;;;4952780;28;20027;-47
2022/12/02 05:14:00;;;;;;;44.30;20.55;;;4.40;99.90;;;;;;4952212;28;20027;-46
2022/12/02 05:16:26;;;;;;;52.58;24.00;;;4.40;99.90;;;;;;4953025;28;20061;-48
2022/12/02 05:18:51;;;;;;;45.78;21.73;;;4.40;99.90;;;;;;4967770;28;20019;-46
2022/12/02 05:21:17;;;;;;;47.88;21.83;;;4.40;99.90;;;;;;4953189;28;20026;-47
2022/12/02 05:23:42;;;;;;;44.65;21.30;;;4.40;99.90;;;;;;4967081;28;20026;-46
2022/12/02 05:26:08;;;;;;;43.78;20.63;;;4.40;99.90;;;;;;4952852;28;20043;-45
2022/12/02 05:28:33;;;;;;;47.55;23.05;;;4.40;99.90;;;;;;4952677;28;20030;-45
2022/12/02 05:30:59;;;;;;;42.05;21.27;;;4.40;99.90;;;;;;4953000;28;20498;-45
2022/12/02 05:33:24;;;;;;;46.60;22.30;;;4.40;99.90;;;;;;4952261;28;20039;-49
2022/12/02 05:35:50;;;;;;;49.38;22.10;;;4.40;99.90;;;;;;4951142;28;20045;-48
2022/12/02 05:38:16;;;;;;;46.00;22.00;;;4.40;99.90;;;;;;4955806;28;20030;-44
2022/12/02 05:40:41;;;;;;;46.05;21.25;;;4.30;99.90;;;;;;4956389;28;20398;-45
2022/12/02 05:43:15;;;;;;;49.17;21.80;;;4.30;99.90;;;;;;4955414;28;20042;-48
2022/12/02 05:45:41;;;;;;;44.92;21.15;;;4.40;99.90;;;;;;4956208;28;20035;-49
2022/12/02 05:48:11;;;;;;;44.70;20.52;;;4.40;99.90;;;;;;4960122;28;20443;-49
2022/12/02 05:50:36;;;;;;;47.63;20.80;;;4.30;99.90;;;;;;4959434;28;20029;-48
2022/12/02 05:53:03;;;;;;;55.88;23.30;;;4.30;99.90;;;;;;4959484;28;20538;-46
2022/12/02 05:55:29;;;;;;;46.30;20.65;;;4.30;99.90;;;;;;4959961;28;20027;-46
2022/12/02 05:58:00;;;;;;;47.15;21.50;;;4.20;99.90;;;;;;4959382;28;20035;-46
2022/12/02 06:00:26;;;;;;;48.47;21.42;;;4.20;99.90;;;;;;4959112;28;20023;-47
2022/12/02 06:02:55;;;;;;;45.65;21.45;;;4.20;99.90;;;;;;4959237;28;20436;-47
2022/12/02 06:05:22;;;;;;;44.95;21.65;;;4.20;99.90;;;;;;4959871;28;20050;-46
2022/12/02 06:07:51;;;;;;;41.25;20.85;;;4.30;99.90;;;;;;4974789;28;20027;-46
2022/12/02 06:10:28;;;;;;;45.92;21.83;;;4.20;99.90;;;;;;4959129;28;20027;-49
2022/12/02 06:12:57;;;;;;;44.25;20.13;;;4.30;99.90;;;;;;4959133;28;20027;-47
2022/12/02 06:15:23;;;;;;;51.25;22.02;;;4.20;99.90;;;;;;4959547;28;20023;-49
2022/12/02 06:17:49;;;;;;;49.58;22.02;;;4.30;99.90;;;;;;4958703;28;20046;-45
2022/12/02 06:20:26;;;;;;;47.47;22.38;;;4.20;99.90;;;;;;4959448;28;20058;-47
2022/12/02 06:22:51;;;;;;;51.33;22.23;;;4.30;99.90;;;;;;4958172;28;20035;-51
2022/12/02 06:25:25;;;;;;;48.50;21.50;;;4.30;99.90;;;;;;4958562;28;20023;-50
2022/12/02 06:27:58;;;;;;;43.80;19.35;;;4.20;99.90;;;;;;4958912;28;20047;-47
2022/12/02 06:30:24;;;;;;;43.03;20.88;;;4.20;99.90;;;;;;4959246;28;20547;-47
2022/12/02 06:32:55;;;;;;;49.65;21.33;;;4.20;99.90;;;;;;4958618;28;20061;-46
2022/12/02 06:35:27;;;;;;;52.13;22.90;;;4.20;99.90;;;;;;4958228;28;20024;-46
2022/12/02 06:37:56;;;;;;;46.53;20.88;;;4.20;99.90;;;;;;4958208;28;20039;-44
2022/12/02 06:40:33;;;;;;;44.50;21.85;;;4.20;99.90;;;;;;4959907;28;20484;-45
2022/12/02 06:43:00;;;;;;;44.00;20.92;;;4.20;99.90;;;;;;4958097;28;20403;-46
2022/12/02 06:45:33;;;;;;;47.17;22.38;;;4.10;99.90;;;;;;4959210;28;20386;-47
2022/12/02 06:48:12;;;;;;;43.47;21.58;;;4.20;99.90;;;;;;4959178;28;20488;-46
2022/12/02 06:50:41;;;;;;;44.60;20.13;;;4.10;99.90;;;;;;4960836;28;20071;-45
2022/12/02 06:53:32;;;;;;;42.50;20.77;;;4.10;99.90;;;;;;4958591;28;20034;-45
2022/12/02 06:56:03;;;;;;;42.05;20.27;;;4.10;99.90;;;;;;4958954;28;20038;-46
2022/12/02 06:58:32;;;;;;;43.28;21.10;;;4.00;99.90;;;;;;4991305;23;20643;-49
2022/12/02 07:01:27;;;;;;;43.20;19.23;;;4.10;99.90;;;;;;4993366;28;20014;-48
2022/12/02 07:04:07;;;;;;;39.30;19.70;;;4.10;99.90;;;;;;4992414;28;20033;-49
2022/12/02 07:06:37;;;;;;;45.83;19.85;;;3.90;99.90;;;;;;5008434;28;20383;-49
2022/12/02 07:09:11;;;;;;;44.17;20.90;;;3.90;99.90;;;;;;4993389;28;20501;-46
2022/12/02 07:11:49;;;;;;;41.80;19.88;;;3.90;99.90;;;;;;4993337;28;20509;-47
2022/12/02 07:14:42;;;;;;;43.25;20.33;;;3.80;99.90;;;;;;5007809;28;20026;-48
2022/12/02 07:17:20;;;;;;;44.85;22.42;;;3.80;99.90;;;;;;4993209;28;20507;-51
2022/12/02 07:19:54;;;;;;;40.22;19.95;;;3.70;99.90;;;;;;4993138;28;20026;-48
2022/12/02 07:22:33;;;;;;;39.90;20.25;;;3.70;99.90;;;;;;4992708;28;20501;-49
2022/12/02 07:25:08;;;;;;;41.38;19.77;;;3.80;99.90;;;;;;4991774;28;20023;-47
2022/12/02 07:27:38;;;;;;;38.10;18.67;;;3.80;99.90;;;;;;4992968;28;20026;-47
2022/12/02 07:30:19;;;;;;;35.25;19.27;;;3.70;99.90;;;;;;4993042;28;20038;-46
2022/12/02 07:32:45;;;;;;;37.20;18.63;;;3.70;99.90;;;;;;4992254;28;20022;-47
2022/12/02 07:35:10;;;;;;;36.35;18.17;;;3.80;99.90;;;;;;4992742;28;20097;-47
2022/12/02 07:37:36;;;;;;;39.40;18.52;;;3.80;99.90;;;;;;5007779;28;20173;-53
2022/12/02 07:40:02;;;;;;;32.63;17.48;;;3.80;99.90;;;;;;4993584;28;20084;-46
2022/12/02 07:42:27;;;;;;;34.00;18.80;;;3.80;99.90;;;;;;4991947;28;20081;-52
2022/12/02 07:44:53;;;;;;;35.65;18.88;;;3.80;99.90;;;;;;4992628;28;20030;-48
2022/12/02 07:47:18;;;;;;;35.30;18.20;;;3.80;99.90;;;;;;4992693;28;20212;-48
2022/12/02 07:49:44;;;;;;;35.70;18.15;;;3.70;99.90;;;;;;4992660;28;20027;-53
2022/12/02 07:52:09;;;;;;;37.88;18.45;;;3.80;99.90;;;;;;4991899;28;20054;-51
2022/12/02 07:54:35;;;;;;;34.90;17.80;;;3.70;99.90;;;;;;5007928;28;20022;-48
2022/12/02 07:57:00;;;;;;;32.33;17.83;;;3.80;99.90;;;;;;4994414;28;20022;-48
2022/12/02 07:59:26;;;;;;;38.42;19.08;;;3.90;99.90;;;;;;4993143;28;20087;-49
2022/12/02 08:01:51;;;;;;;31.75;16.38;;;3.80;99.90;;;;;;4993211;28;20026;-47
2022/12/02 08:04:17;;;;;;;36.78;17.88;;;3.80;99.90;;;;;;4993827;28;20034;-47
2022/12/02 08:06:42;;;;;;;34.13;17.42;;;3.70;99.90;;;;;;4993057;28;20045;-47
2022/12/02 08:09:09;;;;;;;34.25;18.38;;;3.70;99.90;;;;;;4992601;28;20394;-48
2022/12/02 08:11:34;;;;;;;35.35;17.50;;;3.70;99.90;;;;;;4992283;28;20025;-51
2022/12/02 08:14:00;;;;;;;31.13;17.73;;;3.70;99.90;;;;;;4991922;28;20038;-51
2022/12/02 08:16:25;;;;;;;37.28;18.48;;;3.70;99.90;;;;;;4992870;28;20030;-49
2022/12/02 08:18:51;;;;;;;31.10;17.15;;;3.80;99.90;;;;;;4992554;28;20384;-51
2022/12/02 08:21:16;;;;;;;34.33;18.88;;;3.70;99.90;;;;;;4992416;28;20037;-49
2022/12/02 08:23:42;;;;;;;36.30;19.92;;;3.80;99.90;;;;;;4991850;28;20442;-49
2022/12/02 08:26:07;;;;;;;36.08;18.30;;;3.80;99.90;;;;;;4992532;28;20022;-46
2022/12/02 08:28:33;;;;;;;32.80;18.17;;;3.80;99.90;;;;;;4992239;28;20034;-50
2022/12/02 08:30:58;;;;;;;35.10;17.40;;;3.80;99.90;;;;;;4992463;28;20034;-50
2022/12/02 08:33:24;;;;;;;30.55;17.90;;;3.80;99.90;;;;;;4991833;28;20113;-51
2022/12/02 08:35:49;;;;;;;34.28;18.13;;;3.80;99.90;;;;;;4991371;28;20038;-50
2022/12/02 08:38:16;;;;;;;36.67;16.80;;;3.70;99.90;;;;;;4992221;28;20038;-49
2022/12/02 08:40:42;;;;;;;33.97;17.67;;;3.80;99.90;;;;;;4992500;28;20184;-49
2022/12/02 08:43:08;;;;;;;30.45;15.07;;;3.70;99.90;;;;;;4992298;28;20049;-49
2022/12/02 08:45:33;;;;;;;30.35;17.48;;;3.70;99.90;;;;;;4992361;28;20054;-49
2022/12/02 08:47:59;;;;;;;34.83;17.90;;;3.60;99.90;;;;;;4992880;28;20046;-45
2022/12/02 08:50:24;;;;;;;31.15;17.77;;;3.60;99.90;;;;;;4992679;28;20026;-54
2022/12/02 08:52:50;;;;;;;31.30;16.40;;;3.60;99.90;;;;;;5013196;28;20034;-47
2022/12/02 08:55:15;;;;;;;29.45;15.13;;;3.60;99.90;;;;;;5003683;28;20153;-50
2022/12/02 08:57:41;;;;;;;30.33;16.85;;;3.60;99.90;;;;;;5002872;28;20035;-50
2022/12/02 09:00:08;;;;;;;28.17;15.40;;;3.50;99.90;;;;;;5015139;28;20030;-49
2022/12/02 09:02:35;;;;;;;30.38;15.75;;;3.50;99.90;;;;;;4992312;28;20030;-49
2022/12/02 09:05:00;;;;;;;28.25;16.33;;;3.40;99.90;;;;;;4992293;28;20033;-47
2022/12/02 09:07:26;;;;;;;26.85;15.40;;;3.40;99.90;;;;;;4992481;28;20121;-49
2022/12/02 09:09:51;;;;;;;31.00;16.48;;;3.40;99.90;;;;;;4992171;28;20395;-51
2022/12/02 09:12:17;;;;;;;31.63;16.65;;;3.40;99.90;;;;;;4994714;28;20520;-50
2022/12/02 09:14:42;;;;;;;34.45;17.90;;;3.40;99.90;;;;;;4995931;28;20028;-49
2022/12/02 09:17:08;;;;;;;31.20;14.93;;;3.50;99.90;;;;;;5010664;28;20061;-49
2022/12/02 09:19:34;;;;;;;25.40;14.77;;;3.50;99.90;;;;;;4996042;28;20481;-50
2022/12/02 09:21:59;;;;;;;24.45;15.32;;;3.50;99.90;;;;;;4994849;28;20502;-50
2022/12/02 09:24:25;;;;;;;27.10;16.88;;;3.40;99.90;;;;;;4996012;28;20057;-50
2022/12/02 09:26:50;;;;;;;26.88;15.55;;;3.40;99.90;;;;;;4995533;28;20533;-50
2022/12/02 09:29:16;;;;;;;27.27;15.40;;;3.40;99.90;;;;;;4996077;28;20034;-49
2022/12/02 09:31:41;;;;;;;31.35;16.65;;;3.40;99.90;;;;;;4996685;28;20058;-50
2022/12/02 09:34:07;;;;;;;28.45;15.70;;;3.50;99.90;;;;;;4994742;28;20042;-51
2022/12/02 09:36:32;;;;;;;32.17;16.67;;;3.40;99.90;;;;;;4995390;28;20494;-51
2022/12/02 09:38:58;;;;;;;27.25;15.65;;;3.40;99.90;;;;;;4995443;28;20030;-47
2022/12/02 09:41:24;;;;;;;29.02;15.25;;;3.30;99.90;;;;;;4995593;28;20093;-51
2022/12/02 09:43:49;;;;;;;27.02;14.90;;;3.30;99.90;;;;;;4994865;28;20018;-49
2022/12/02 09:46:15;;;;;;;27.35;15.48;;;3.30;99.90;;;;;;4995304;28;20022;-53
2022/12/02 09:48:41;;;;;;;29.58;16.05;;;3.20;99.90;;;;;;5010693;28;20030;-51
2022/12/02 09:51:08;;;;;;;25.20;15.07;;;3.20;99.90;;;;;;4995672;28;20026;-51
2022/12/02 09:53:38;;;;;;;30.25;17.05;;;3.10;99.90;;;;;;4994328;28;20041;-49
2022/12/02 09:56:04;;;;;;;27.20;16.92;;;3.20;99.90;;;;;;4993793;28;20294;-48
2022/12/02 09:58:30;;;;;;;25.75;14.43;;;3.30;99.90;;;;;;4994696;28;20498;-51
2022/12/02 10:00:56;;;;;;;24.58;14.35;;;3.20;99.90;;;;;;4994921;28;20022;-48
2022/12/02 10:03:25;;;;;;;31.25;15.50;;;3.30;99.90;;;;;;4994547;28;20080;-50
2022/12/02 10:05:51;;;;;;;28.27;15.80;;;3.30;99.90;;;;;;4995127;28;20068;-51
2022/12/02 10:08:22;;;;;;;26.17;14.88;;;3.30;99.90;;;;;;4994764;28;20113;-48
2022/12/02 10:10:47;;;;;;;24.73;15.25;;;3.40;99.90;;;;;;4994822;28;20101;-55
2022/12/02 10:13:15;;;;;;;28.15;15.38;;;3.50;99.90;;;;;;5009289;28;20157;-53
2022/12/02 10:15:41;;;;;;;30.83;16.77;;;3.50;99.90;;;;;;4995461;28;20026;-54
2022/12/02 10:18:20;;;;;;;27.58;15.70;;;3.50;99.90;;;;;;4995459;28;20509;-60
2022/12/02 10:20:46;;;;;;;29.15;16.77;;;3.40;99.90;;;;;;4976479;28;20269;-52
2022/12/02 10:23:19;;;;;;;28.80;15.38;;;3.40;99.90;;;;;;4991207;28;20023;-58
2022/12/02 10:26:12;;;;;;;27.90;15.70;;;3.30;99.90;;;;;;4999438;28;20501;-52
2022/12/02 10:28:39;;;;;;;24.88;14.60;;;3.40;99.90;;;;;;4991123;28;20042;-55
2022/12/02 10:31:13;;;;;;;26.00;14.90;;;3.30;99.90;;;;;;4994440;28;20038;-53
2022/12/02 10:33:49;;;;;;;24.77;15.38;;;3.40;99.90;;;;;;5008823;28;20033;-51
2022/12/02 10:36:32;;;;;;;25.45;15.23;;;3.40;99.90;;;;;;4992692;28;20033;-54
2022/12/02 10:39:20;;;;;;;29.48;15.65;;;3.40;99.90;;;;;;4994243;28;20018;-55
2022/12/02 10:42:13;;;;;;;27.70;15.13;;;3.50;99.90;;;;;;4993925;28;20391;-54
2022/12/02 10:44:43;;;;;;;24.30;14.85;;;3.50;99.90;;;;;;5000419;28;20030;-54
2022/12/02 10:47:15;;;;;;;26.50;15.32;;;3.50;99.90;;;;;;5008903;28;20105;-54
2022/12/02 10:49:51;;;;;;;25.98;15.27;;;3.50;99.90;;;;;;4993988;28;20030;-54
2022/12/02 10:52:19;;;;;;;24.75;14.27;;;3.50;99.90;;;;;;4991979;28;20117;-53
2022/12/02 10:54:49;;;;;;;24.35;14.10;;;3.50;99.90;;;;;;4994240;28;20425;-55
2022/12/02 10:57:25;;;;;;;27.05;15.15;;;3.50;99.90;;;;;;4993157;28;20026;-54
2022/12/02 10:59:53;;;;;;;22.42;14.43;;;3.40;99.90;;;;;;4992816;28;20109;-50
2022/12/02 11:02:44;;;;;;;28.05;15.48;;;3.30;99.90;;;;;;4993038;28;20423;-54
2022/12/02 11:05:20;;;;;;;24.75;15.73;;;3.30;99.90;;;;;;4993903;28;20042;-57
2022/12/02 11:07:56;;;;;;;29.02;16.33;;;3.30;99.90;;;;;;4993577;28;20025;-53
2022/12/02 11:10:25;;;;;;;23.90;14.40;;;3.30;99.90;;;;;;4993342;28;20478;-52
2022/12/02 11:12:51;;;;;;;24.15;15.55;;;3.40;99.90;;;;;;4992953;28;20042;-55
2022/12/02 11:15:37;;;;;;;23.23;14.55;;;3.40;99.90;;;;;;4993384;28;20022;-53
2022/12/02 11:18:04;;;;;;;22.17;13.52;;;3.40;99.90;;;;;;4992955;28;20022;-53
2022/12/02 11:20:37;;;;;;;26.30;15.82;;;3.40;99.90;;;;;;4993069;28;20383;-53
2022/12/02 11:23:17;;;;;;;24.00;14.65;;;3.40;99.90;;;;;;4992455;28;20064;-54
2022/12/02 11:25:42;;;;;;;24.52;15.55;;;3.40;99.90;;;;;;4993476;28;20429;-50
2022/12/02 11:28:16;;;;;;;26.80;14.93;;;3.40;99.90;;;;;;4992668;28;20026;-55
2022/12/02 11:30:43;;;;;;;25.92;15.57;;;3.40;99.90;;;;;;4992946;28;20026;-50
2022/12/02 11:33:33;;;;;;;26.33;14.70;;;3.40;99.90;;;;;;4991557;28;20113;-52
2022/12/02 11:36:07;;;;;;;25.20;15.35;;;3.40;99.90;;;;;;4992394;28;20410;-56
2022/12/02 11:38:45;;;;;;;23.48;15.50;;;3.50;99.90;;;;;;4992882;28;20502;-55
2022/12/02 11:41:11;;;;;;;24.98;14.77;;;3.50;99.90;;;;;;5003406;28;20030;-55
2022/12/02 11:43:46;;;;;;;26.80;15.23;;;3.60;99.90;;;;;;4992066;28;20031;-54
2022/12/02 11:46:37;;;;;;;22.27;13.47;;;3.40;99.90;;;;;;4992691;28;20030;-53
2022/12/02 11:49:17;;;;;;;23.58;13.90;;;3.40;99.90;;;;;;4992640;28;20153;-53
2022/12/02 11:51:42;;;;;;;20.35;12.57;;;3.50;99.90;;;;;;5006859;28;20023;-55
2022/12/02 11:54:13;;;;;;;21.75;13.48;;;3.40;99.90;;;;;;4991979;28;20517;-53
2022/12/02 11:56:39;;;;;;;55.60;30.70;;;3.30;99.90;;;;;;4988345;28;20033;-52
2022/12/02 11:59:22;;;;;;;35.30;22.33;;;3.40;99.90;;;;;;4972966;28;20062;-53
2022/12/02 12:01:48;;;;;;;24.88;15.43;;;3.30;99.90;;;;;;4972596;28;20106;-50
2022/12/02 12:04:22;;;;;;;23.05;14.52;;;3.30;99.90;;;;;;4972382;28;20132;-52
2022/12/02 12:06:57;;;;;;;23.45;13.73;;;3.30;99.90;;;;;;4975745;28;20027;-56
2022/12/02 12:09:22;;;;;;;20.33;13.45;;;3.40;99.90;;;;;;4992007;28;20402;-54
2022/12/02 12:12:17;;;;;;;23.75;13.90;;;3.40;99.90;;;;;;4991238;28;20042;-55
2022/12/02 12:14:53;;;;;;;27.70;14.13;;;3.40;99.90;;;;;;4990414;28;20521;-52
2022/12/02 12:17:37;;;;;;;;;;;3.30;99.90;;;;;;4990937;28;20109;-54
2022/12/02 12:20:04;;;;;;;20.65;13.10;;;3.30;99.90;;;;;;4991349;28;19937;-53
2022/12/02 12:22:30;;;;;;;24.58;14.75;;;3.40;99.90;;;;;;4991313;28;20034;-57
2022/12/02 12:25:33;;;;;;;23.23;15.23;;;3.40;99.90;;;;;;5007214;28;20022;-56
2022/12/02 12:27:59;;;;;;;22.75;13.70;;;3.50;99.90;;;;;;4972513;28;20102;-54
2022/12/02 12:30:25;;;;;;;26.02;15.45;;;3.50;99.90;;;;;;4971265;28;20555;-52
2022/12/02 12:32:50;;;;;;;23.52;15.30;;;3.50;99.90;;;;;;4971746;28;20030;-51
2022/12/02 12:35:16;;;;;;;26.52;15.25;;;3.50;99.90;;;;;;4987404;28;20027;-51
2022/12/02 12:37:42;;;;;;;23.88;13.85;;;3.40;99.90;;;;;;4986688;28;20022;-51
2022/12/02 12:40:08;;;;;;;21.88;13.98;;;3.40;99.90;;;;;;4991655;28;20026;-53
2022/12/02 12:42:33;;;;;;;22.20;14.15;;;3.50;99.90;;;;;;4990584;28;20019;-55
2022/12/02 12:44:59;;;;;;;19.13;12.98;;;3.40;99.90;;;;;;5006828;28;20034;-54
2022/12/02 12:47:24;;;;;;;26.10;14.23;;;3.30;99.90;;;;;;4995543;28;20038;-50